Time;durP1;ratioP1;P1;durP2;ratioP2;P2;SDS_P1;SDS_P2;PMS_P1;PMS_P2;Temp;Humidity;BMP_temperature;BMP_pressure;BME280_temperature;BME280_humidity;BME280_pressure;Samples;Min_cycle;Max_cycle;Signal;HPM_P1;HPM_P2
2022/09/30 00:00:51;;;;;;;7.57;4.90;;;;;;;;;;5083581;28;20078;-79
2022/09/30 00:03:17;;;;;;;7.68;4.50;;;;;;;;;;5092684;28;20348;-79
2022/09/30 00:05:43;;;;;;;8.63;5.10;;;;;;;;;;5093541;28;20056;-78
2022/09/30 00:08:09;;;;;;;7.38;4.43;;;;;;;;;;5075731;28;20032;-79
2022/09/30 00:10:35;;;;;;;8.18;4.68;;;;;;;;;;5094594;28;20154;-78
2022/09/30 00:13:01;;;;;;;9.40;5.80;;;;;;;;;;5094508;28;20031;-79
2022/09/30 00:15:27;;;;;;;7.68;5.15;;;;;;;;;;5094497;28;20024;-79
2022/09/30 00:17:54;;;;;;;8.18;5.18;;;;;;;;;;5084429;28;20047;-79
2022/09/30 00:20:20;;;;;;;7.60;4.70;;;;;;;;;;5094994;28;20035;-79
2022/09/30 00:22:46;;;;;;;8.30;5.03;;;;;;;;;;5095201;28;20057;-79
2022/09/30 00:25:14;;;;;;;8.68;5.07;;;;;;;;;;5090730;28;20400;-79
2022/09/30 00:27:40;;;;;;;8.00;5.10;;;;;;;;;;5095463;28;20103;-79
2022/09/30 00:30:08;;;;;;;7.35;4.82;;;;;;;;;;5095207;28;20062;-79
2022/09/30 00:32:34;;;;;;;8.98;5.63;;;;;;;;;;5094671;28;20043;-80
2022/09/30 00:35:00;;;;;;;9.50;5.13;;;;;;;;;;5097583;28;20063;-79
2022/09/30 00:37:26;;;;;;;7.78;4.95;;;;;;;;;;5092805;28;20028;-78
2022/09/30 00:39:52;;;;;;;8.43;5.38;;;;;;;;;;5074524;28;21357;-79
2022/09/30 00:42:18;;;;;;;8.68;5.28;;;;;;;;;;5076314;28;20032;-79
2022/09/30 00:45:02;;;;;;;8.15;5.28;;;;;;;;;;5077025;28;20029;-79
2022/09/30 00:47:44;;;;;;;7.50;4.80;;;;;;;;;;5087943;28;20028;-79
2022/09/30 00:50:13;;;;;;;7.97;5.10;;;;;;;;;;5097102;28;20020;-79
2022/09/30 00:52:39;;;;;;;10.20;5.10;;;;;;;;;;5094897;28;20024;-78
2022/09/30 00:55:07;;;;;;;8.60;5.45;;;;;;;;;;5097286;28;20097;-78
2022/09/30 00:57:34;;;;;;;7.28;5.03;;;;;;;;;;5074657;28;20024;-79
2022/09/30 01:00:00;;;;;;;7.78;5.18;;;;;;;;;;5093264;28;20028;-79
2022/09/30 01:02:26;;;;;;;8.82;5.03;;;;;;;;;;5096898;28;20028;-78
2022/09/30 01:04:53;;;;;;;10.13;5.45;;;;;;;;;;5074423;28;20036;-78
2022/09/30 01:07:21;;;;;;;9.25;5.55;;;;;;;;;;5094819;28;20040;-79
2022/09/30 01:09:47;;;;;;;10.68;5.80;;;;;;;;;;5092139;28;20319;-79
2022/09/30 01:12:17;;;;;;;9.63;6.55;;;;;;;;;;5097981;28;20025;-79
2022/09/30 01:14:44;;;;;;;9.50;6.13;;;;;;;;;;5100970;28;20021;-79
2022/09/30 01:17:13;;;;;;;9.82;6.28;;;;;;;;;;5098896;28;20051;-78
2022/09/30 01:19:39;;;;;;;8.75;6.05;;;;;;;;;;5099710;28;20032;-79
2022/09/30 01:22:21;;;;;;;11.02;6.18;;;;;;;;;;5100756;28;20044;-78
2022/09/30 01:24:56;;;;;;;12.60;7.13;;;;;;;;;;5099908;28;20032;-79
2022/09/30 01:27:42;;;;;;;9.68;6.50;;;;;;;;;;5098307;28;20039;-79
2022/09/30 01:30:10;;;;;;;9.23;6.25;;;;;;;;;;5049171;28;20028;-79
2022/09/30 01:32:55;;;;;;;11.00;7.00;;;;;;;;;;5093962;28;20028;-79
2022/09/30 01:35:21;;;;;;;10.25;6.72;;;;;;;;;;5099548;28;20031;-79
2022/09/30 01:37:56;;;;;;;9.80;5.68;;;;;;;;;;5100222;28;20031;-79
2022/09/30 01:40:25;;;;;;;10.13;6.15;;;;;;;;;;5096817;28;20073;-79
2022/09/30 01:43:11;;;;;;;10.80;5.97;;;;;;;;;;5098125;28;20387;-79
2022/09/30 01:45:42;;;;;;;11.15;6.45;;;;;;;;;;5080002;28;20025;-79
2022/09/30 01:48:16;;;;;;;9.55;5.75;;;;;;;;;;5080394;28;20115;-79
2022/09/30 01:50:46;;;;;;;8.38;5.28;;;;;;;;;;5058768;28;20452;-79
2022/09/30 01:53:19;;;;;;;9.32;5.88;;;;;;;;;;5090890;28;20103;-79
2022/09/30 01:55:53;;;;;;;8.27;4.93;;;;;;;;;;5098122;28;20133;-79
2022/09/30 01:58:26;;;;;;;8.98;5.50;;;;;;;;;;5098622;28;20395;-79
2022/09/30 02:00:54;;;;;;;9.02;5.22;;;;;;;;;;5099444;28;20043;-79
2022/09/30 02:03:23;;;;;;;8.80;5.65;;;;;;;;;;5099537;28;20025;-78
2022/09/30 02:06:01;;;;;;;8.23;5.00;;;;;;;;;;5099606;28;20231;-79
2022/09/30 02:08:45;;;;;;;7.72;4.90;;;;;;;;;;5094042;28;20033;-79
2022/09/30 02:11:13;;;;;;;9.68;5.25;;;;;;;;;;5097593;28;20050;-79
2022/09/30 02:13:43;;;;;;;8.90;5.80;;;;;;;;;;5100063;28;20420;-78
2022/09/30 02:16:11;;;;;;;8.23;5.32;;;;;;;;;;5096404;28;20024;-78
2022/09/30 02:18:40;;;;;;;8.05;4.72;;;;;;;;;;5076644;28;20040;-78
2022/09/30 02:21:07;;;;;;;8.30;5.63;;;;;;;;;;5093928;28;20031;-78
2022/09/30 02:23:35;;;;;;;9.02;5.78;;;;;;;;;;5097371;28;20032;-78
2022/09/30 02:26:07;;;;;;;8.75;5.47;;;;;;;;;;5095750;28;20024;-78
2022/09/30 02:28:37;;;;;;;9.05;5.10;;;;;;;;;;5097390;28;20032;-78
2022/09/30 02:31:04;;;;;;;8.40;5.43;;;;;;;;;;5097617;28;20024;-78
2022/09/30 02:33:33;;;;;;;8.45;5.40;;;;;;;;;;5096913;28;20073;-78
2022/09/30 02:36:06;;;;;;;8.65;5.45;;;;;;;;;;5097234;28;20073;-78
2022/09/30 02:38:36;;;;;;;8.55;6.15;;;;;;;;;;5096980;28;20024;-78
2022/09/30 02:41:17;;;;;;;9.02;5.55;;;;;;;;;;5096799;28;20395;-78
2022/09/30 02:43:43;;;;;;;8.50;6.00;;;;;;;;;;5097242;28;20431;-78
2022/09/30 02:46:44;;;;;;;7.55;5.20;;;;;;;;;;5096561;28;20106;-78
2022/09/30 02:49:17;;;;;;;8.07;5.32;;;;;;;;;;4996169;28;20544;-79
2022/09/30 02:52:01;;;;;;;9.38;5.63;;;;;;;;;;5078743;28;20052;-80
2022/09/30 02:54:30;;;;;;;8.30;5.70;;;;;;;;;;5098356;28;20032;-80
2022/09/30 02:56:56;;;;;;;8.48;5.13;;;;;;;;;;5076286;28;20435;-81
2022/09/30 02:59:23;;;;;;;9.50;5.60;;;;;;;;;;5098550;28;20036;-81
2022/09/30 03:01:49;;;;;;;8.50;5.55;;;;;;;;;;5098487;28;20055;-81
2022/09/30 03:04:17;;;;;;;10.93;6.90;;;;;;;;;;5097507;28;20035;-81
2022/09/30 03:06:43;;;;;;;8.77;6.07;;;;;;;;;;5099220;28;20028;-82
2022/09/30 03:09:09;;;;;;;8.60;6.07;;;;;;;;;;5098933;28;20024;-81
2022/09/30 03:11:36;;;;;;;9.48;5.53;;;;;;;;;;5089260;28;20017;-81
2022/09/30 03:14:23;;;;;;;9.43;6.55;;;;;;;;;;5094452;28;20046;-81
2022/09/30 03:16:59;;;;;;;9.50;6.55;;;;;;;;;;5098453;28;20104;-81
2022/09/30 03:19:28;;;;;;;10.38;6.50;;;;;;;;;;5097727;28;20036;-81
2022/09/30 03:21:54;;;;;;;9.48;6.53;;;;;;;;;;5095769;28;20103;-82
2022/09/30 03:24:26;;;;;;;10.90;6.57;;;;;;;;;;5098218;28;20032;-81
2022/09/30 03:27:06;;;;;;;11.07;6.65;;;;;;;;;;5096079;28;20039;-83
2022/09/30 03:29:32;;;;;;;9.40;6.15;;;;;;;;;;5100111;28;20087;-82
2022/09/30 03:32:06;;;;;;;9.50;6.30;;;;;;;;;;5098740;28;20056;-82
2022/09/30 03:34:32;;;;;;;8.35;5.43;;;;;;;;;;5098936;28;20495;-82
2022/09/30 03:37:01;;;;;;;8.23;5.38;;;;;;;;;;5092466;28;20098;-82
2022/09/30 03:39:30;;;;;;;9.55;5.85;;;;;;;;;;5094780;28;20020;-82
2022/09/30 03:42:08;;;;;;;8.48;6.07;;;;;;;;;;5074599;28;20051;-82
2022/09/30 03:44:58;;;;;;;9.25;5.75;;;;;;;;;;5092280;28;20020;-82
2022/09/30 03:47:25;;;;;;;11.13;6.60;;;;;;;;;;5086652;28;20032;-82
2022/09/30 03:49:53;;;;;;;10.15;6.40;;;;;;;;;;5094815;28;20101;-82
2022/09/30 03:52:20;;;;;;;10.70;6.57;;;;;;;;;;5093472;28;20388;-82
2022/09/30 03:54:51;;;;;;;9.38;6.03;;;;;;;;;;5078415;28;20021;-84
2022/09/30 03:57:17;;;;;;;10.07;6.90;;;;;;;;;;5089516;28;20024;-83
2022/09/30 03:59:43;;;;;;;9.68;6.05;;;;;;;;;;5094798;28;20075;-83
2022/09/30 04:02:12;;;;;;;10.35;6.13;;;;;;;;;;5085078;28;20024;-84
2022/09/30 04:04:38;;;;;;;11.50;6.25;;;;;;;;;;5078808;28;20024;-84
2022/09/30 04:07:04;;;;;;;10.55;6.70;;;;;;;;;;5098885;28;20032;-83
2022/09/30 04:09:30;;;;;;;9.98;6.80;;;;;;;;;;5096181;28;20043;-83
2022/09/30 04:11:56;;;;;;;9.20;6.38;;;;;;;;;;5096288;28;20043;-83
2022/09/30 04:14:22;;;;;;;9.65;6.70;;;;;;;;;;5086808;28;20013;-83
2022/09/30 04:16:48;;;;;;;11.75;6.90;;;;;;;;;;5080452;28;20070;-83
2022/09/30 04:19:14;;;;;;;9.88;6.38;;;;;;;;;;5081111;28;20048;-83
2022/09/30 04:21:40;;;;;;;11.30;6.47;;;;;;;;;;5075769;28;20047;-84
2022/09/30 04:24:07;;;;;;;11.23;7.10;;;;;;;;;;5096351;28;20092;-84
2022/09/30 04:26:33;;;;;;;11.93;7.43;;;;;;;;;;5098059;28;20028;-84
2022/09/30 04:28:58;;;;;;;10.10;7.00;;;;;;;;;;5095790;28;20028;-85
2022/09/30 04:31:25;;;;;;;11.68;7.18;;;;;;;;;;5094121;28;20050;-85
2022/09/30 04:33:52;;;;;;;10.65;6.63;;;;;;;;;;5096053;28;20113;-85
2022/09/30 04:36:18;;;;;;;11.60;6.88;;;;;;;;;;5075345;28;20035;-83
2022/09/30 04:38:44;;;;;;;10.70;7.07;;;;;;;;;;5057207;28;20424;-84
2022/09/30 04:41:15;;;;;;;11.25;7.40;;;;;;;;;;5083645;28;20022;-85
2022/09/30 04:43:45;;;;;;;11.68;6.80;;;;;;;;;;5098894;28;20119;-85
2022/09/30 04:46:11;;;;;;;11.20;7.30;;;;;;;;;;5094951;28;20024;-84
2022/09/30 04:48:37;;;;;;;11.10;7.30;;;;;;;;;;5094369;28;20051;-85
2022/09/30 04:51:04;;;;;;;10.23;7.10;;;;;;;;;;5103250;28;20016;-84
2022/09/30 04:53:30;;;;;;;11.48;7.25;;;;;;;;;;5099909;28;20028;-82
2022/09/30 04:56:00;;;;;;;11.57;8.05;;;;;;;;;;5092290;28;20032;-84
2022/09/30 04:58:26;;;;;;;12.38;8.02;;;;;;;;;;5092460;28;20033;-83
2022/09/30 05:00:59;;;;;;;11.85;7.68;;;;;;;;;;5089934;28;20016;-83
2022/09/30 05:03:25;;;;;;;10.73;6.60;;;;;;;;;;5089630;28;20033;-83
2022/09/30 05:05:52;;;;;;;10.38;7.32;;;;;;;;;;5072697;28;20036;-83
2022/09/30 05:08:24;;;;;;;11.98;7.60;;;;;;;;;;5096657;28;20028;-83
2022/09/30 05:10:57;;;;;;;12.27;7.50;;;;;;;;;;5103053;28;20109;-84
2022/09/30 05:13:24;;;;;;;10.48;7.15;;;;;;;;;;5093157;28;20439;-84
2022/09/30 05:15:50;;;;;;;11.23;7.07;;;;;;;;;;5080431;28;20036;-83
2022/09/30 05:18:16;;;;;;;13.30;7.80;;;;;;;;;;5102762;28;20031;-84
2022/09/30 05:20:42;;;;;;;12.18;7.05;;;;;;;;;;5092542;28;20470;-83
2022/09/30 05:23:08;;;;;;;11.10;7.30;;;;;;;;;;5071142;28;20052;-83
2022/09/30 05:25:35;;;;;;;12.18;7.28;;;;;;;;;;5061331;28;20024;-83
2022/09/30 05:28:01;;;;;;;11.68;7.80;;;;;;;;;;5075473;28;20508;-83
2022/09/30 05:30:27;;;;;;;12.60;7.68;;;;;;;;;;5095399;28;20403;-84
2022/09/30 05:32:53;;;;;;;12.82;7.78;;;;;;;;;;5097499;28;20496;-84
2022/09/30 05:35:19;;;;;;;10.23;6.78;;;;;;;;;;5098351;28;20043;-83
2022/09/30 05:37:45;;;;;;;11.23;6.68;;;;;;;;;;5070626;28;20029;-84
2022/09/30 05:40:11;;;;;;;11.23;7.35;;;;;;;;;;5094259;28;20024;-84
2022/09/30 05:42:37;;;;;;;9.82;6.68;;;;;;;;;;5094951;28;20499;-83
2022/09/30 05:45:05;;;;;;;11.27;6.75;;;;;;;;;;5102242;28;20108;-83
2022/09/30 05:47:31;;;;;;;12.85;7.65;;;;;;;;;;5096587;28;20028;-82
2022/09/30 05:49:57;;;;;;;11.93;8.00;;;;;;;;;;5095833;28;20024;-83
2022/09/30 05:52:23;;;;;;;11.35;7.50;;;;;;;;;;5096734;28;20028;-84
2022/09/30 05:54:49;;;;;;;13.98;8.50;;;;;;;;;;5101410;28;20028;-85
2022/09/30 05:57:16;;;;;;;13.73;7.88;;;;;;;;;;5077575;28;20396;-83
2022/09/30 05:59:42;;;;;;;13.23;8.30;;;;;;;;;;5101740;28;20024;-83
2022/09/30 06:02:08;;;;;;;12.65;8.57;;;;;;;;;;5102172;28;20052;-84
2022/09/30 06:04:34;;;;;;;11.25;7.03;;;;;;;;;;5099671;28;20124;-85
2022/09/30 06:07:01;;;;;;;12.40;8.10;;;;;;;;;;5070964;28;20043;-85
2022/09/30 06:09:27;;;;;;;11.85;7.93;;;;;;;;;;5077309;28;20104;-85
2022/09/30 06:11:56;;;;;;;13.55;8.40;;;;;;;;;;5095397;28;20056;-85
2022/09/30 06:14:22;;;;;;;12.50;7.65;;;;;;;;;;5092567;28;20365;-83
2022/09/30 06:16:48;;;;;;;13.68;8.30;;;;;;;;;;5089389;28;20381;-84
2022/09/30 06:19:14;;;;;;;12.27;8.73;;;;;;;;;;5095289;28;20016;-83
2022/09/30 06:21:40;;;;;;;15.30;9.43;;;;;;;;;;5076814;28;20523;-83
2022/09/30 06:24:12;;;;;;;13.77;9.45;;;;;;;;;;5081913;28;20025;-84
2022/09/30 06:26:38;;;;;;;13.15;9.38;;;;;;;;;;5099947;28;20411;-83
2022/09/30 06:29:04;;;;;;;14.85;9.25;;;;;;;;;;5098424;28;20100;-82
2022/09/30 06:31:30;;;;;;;14.23;8.82;;;;;;;;;;5094077;28;20020;-82
2022/09/30 06:33:56;;;;;;;13.00;8.65;;;;;;;;;;5097847;28;20020;-83
2022/09/30 06:36:23;;;;;;;13.43;9.07;;;;;;;;;;5097411;28;20056;-83
2022/09/30 06:38:53;;;;;;;13.02;8.10;;;;;;;;;;5079261;28;20024;-82
2022/09/30 06:41:19;;;;;;;12.85;7.63;;;;;;;;;;5075508;28;20105;-82
2022/09/30 06:43:45;;;;;;;12.88;8.35;;;;;;;;;;5100813;28;20043;-82
2022/09/30 06:46:11;;;;;;;11.73;8.38;;;;;;;;;;5100013;28;20020;-82
2022/09/30 06:48:39;;;;;;;11.80;8.00;;;;;;;;;;5098010;28;20039;-83
2022/09/30 06:51:08;;;;;;;14.57;8.30;;;;;;;;;;5097734;28;20024;-82
2022/09/30 06:53:34;;;;;;;11.48;7.88;;;;;;;;;;5097888;28;20016;-84
2022/09/30 06:56:00;;;;;;;12.02;8.35;;;;;;;;;;5091993;28;20024;-82
2022/09/30 06:58:26;;;;;;;13.05;7.90;;;;;;;;;;5081098;28;20040;-82
2022/09/30 07:01:00;;;;;;;14.65;8.75;;;;;;;;;;5099626;28;20026;-82
2022/09/30 07:03:31;;;;;;;14.90;9.00;;;;;;;;;;5097287;28;20395;-82
2022/09/30 07:05:58;;;;;;;13.27;8.75;;;;;;;;;;5086987;28;20025;-82
2022/09/30 07:08:33;;;;;;;14.65;9.65;;;;;;;;;;5074824;28;20262;-82
2022/09/30 07:11:00;;;;;;;13.30;8.68;;;;;;;;;;5081804;28;20020;-82
2022/09/30 07:13:27;;;;;;;12.57;8.50;;;;;;;;;;5099615;28;20024;-82
2022/09/30 07:15:55;;;;;;;13.00;8.88;;;;;;;;;;5094038;28;20032;-81
2022/09/30 07:18:21;;;;;;;12.90;8.82;;;;;;;;;;5099683;28;20435;-81
2022/09/30 07:20:48;;;;;;;15.18;8.40;;;;;;;;;;5078734;28;20112;-81
2022/09/30 07:23:14;;;;;;;14.73;9.50;;;;;;;;;;5099769;28;20048;-82
2022/09/30 07:25:48;;;;;;;15.70;9.45;;;;;;;;;;5088829;28;20051;-81
2022/09/30 07:28:14;;;;;;;13.73;10.55;;;;;;;;;;5087659;28;20024;-82
2022/09/30 07:30:42;;;;;;;13.43;9.80;;;;;;;;;;5077265;28;20074;-83
2022/09/30 07:33:08;;;;;;;14.68;10.40;;;;;;;;;;5097396;28;20386;-82
2022/09/30 07:35:34;;;;;;;15.35;10.57;;;;;;;;;;5099208;28;20024;-81
2022/09/30 07:38:01;;;;;;;16.65;10.73;;;;;;;;;;5099128;28;20040;-82
2022/09/30 07:40:30;;;;;;;15.13;10.50;;;;;;;;;;5078160;28;20033;-82
2022/09/30 07:42:57;;;;;;;14.70;10.55;;;;;;;;;;5095547;28;20024;-82
2022/09/30 07:45:23;;;;;;;14.30;10.15;;;;;;;;;;5071236;28;20349;-82
2022/09/30 07:47:49;;;;;;;16.00;10.70;;;;;;;;;;5095739;28;20021;-83
2022/09/30 07:50:15;;;;;;;19.48;12.57;;;;;;;;;;5099044;28;20030;-83
2022/09/30 07:52:41;;;;;;;16.35;10.27;;;;;;;;;;5073645;28;20028;-83
2022/09/30 07:55:08;;;;;;;15.77;9.63;;;;;;;;;;5082266;28;20024;-83
2022/09/30 07:57:34;;;;;;;13.88;9.93;;;;;;;;;;5062030;28;20039;-83
2022/09/30 08:00:00;;;;;;;15.15;10.23;;;;;;;;;;5077710;28;20021;-83
2022/09/30 08:02:26;;;;;;;16.00;10.00;;;;;;;;;;5104591;28;20036;-83
2022/09/30 08:04:52;;;;;;;15.02;9.60;;;;;;;;;;5098143;28;20024;-82
2022/09/30 08:07:18;;;;;;;14.63;9.48;;;;;;;;;;5105950;28;20039;-82
2022/09/30 08:09:44;;;;;;;15.45;10.20;;;;;;;;;;5105000;28;20054;-83
2022/09/30 08:12:10;;;;;;;14.45;9.68;;;;;;;;;;5094410;28;20035;-82
2022/09/30 08:14:36;;;;;;;15.60;10.23;;;;;;;;;;5099203;28;20024;-83
2022/09/30 08:17:02;;;;;;;15.98;9.80;;;;;;;;;;5097999;28;20403;-83
2022/09/30 08:19:29;;;;;;;14.55;9.07;;;;;;;;;;5093741;28;20020;-84
2022/09/30 08:21:56;;;;;;;15.95;9.73;;;;;;;;;;5075832;28;20043;-84
2022/09/30 08:24:22;;;;;;;16.08;9.43;;;;;;;;;;5078398;28;20036;-83
2022/09/30 08:26:48;;;;;;;15.75;10.23;;;;;;;;;;5062176;28;20025;-84
2022/09/30 08:29:15;;;;;;;15.73;9.30;;;;;;;;;;5057932;28;20051;-83
2022/09/30 08:31:41;;;;;;;16.58;10.30;;;;;;;;;;5075172;28;20040;-83
2022/09/30 08:34:07;;;;;;;16.92;10.63;;;;;;;;;;5075640;28;20109;-84
2022/09/30 08:36:33;;;;;;;16.20;10.50;;;;;;;;;;5075451;28;20439;-83
2022/09/30 08:38:59;;;;;;;17.50;11.18;;;;;;;;;;5076206;28;20109;-84
2022/09/30 08:41:40;;;;;;;14.30;10.23;;;;;;;;;;5059389;28;20024;-82
2022/09/30 08:44:19;;;;;;;17.02;11.02;;;;;;;;;;5062001;28;20534;-84
2022/09/30 08:46:53;;;;;;;16.00;9.93;;;;;;;;;;5059995;28;20116;-83
2022/09/30 08:49:22;;;;;;;16.90;10.40;;;;;;;;;;5071794;28;20103;-83
2022/09/30 08:51:49;;;;;;;14.80;9.90;;;;;;;;;;5075274;28;20056;-84
2022/09/30 08:54:17;;;;;;;16.95;10.95;;;;;;;;;;5078177;28;20028;-84
2022/09/30 08:56:44;;;;;;;15.48;9.38;;;;;;;;;;5078787;28;20048;-85
2022/09/30 08:59:29;;;;;;;17.48;10.85;;;;;;;;;;5079334;28;20028;-85
2022/09/30 09:02:22;;;;;;;16.33;11.32;;;;;;;;;;5083073;28;20523;-85
2022/09/30 09:04:50;;;;;;;15.67;10.73;;;;;;;;;;5077410;28;20043;-83
2022/09/30 09:07:22;;;;;;;15.75;10.43;;;;;;;;;;5088641;28;20030;-83
2022/09/30 09:09:51;;;;;;;14.55;10.32;;;;;;;;;;5086838;28;20039;-83
2022/09/30 09:12:30;;;;;;;15.98;10.38;;;;;;;;;;5088406;28;20051;-84
2022/09/30 09:15:02;;;;;;;13.82;9.38;;;;;;;;;;5085293;28;20013;-83
2022/09/30 09:17:51;;;;;;;15.55;10.23;;;;;;;;;;5066517;28;20028;-84
2022/09/30 09:20:19;;;;;;;13.57;9.10;;;;;;;;;;5067966;28;20086;-83
2022/09/30 09:22:45;;;;;;;13.88;9.63;;;;;;;;;;5093095;28;20044;-85
2022/09/30 09:25:16;;;;;;;13.15;9.00;;;;;;;;;;5077997;28;20024;-84
2022/09/30 09:27:50;;;;;;;15.52;8.20;;;;;;;;;;5087612;28;20044;-82
2022/09/30 09:30:19;;;;;;;12.65;7.82;;;;;;;;;;5091380;28;20063;-83
2022/09/30 09:32:49;;;;;;;12.50;8.32;;;;;;;;;;5081727;28;20025;-82
2022/09/30 09:35:17;;;;;;;12.50;8.65;;;;;;;;;;5097123;28;20028;-82
2022/09/30 09:40:56;;;;;;;12.68;8.75;;;;;;;;;;5071806;28;20114;-82
2022/09/30 09:43:45;;;;;;;11.80;7.90;;;;;;;;;;5080697;28;20028;-82
2022/09/30 09:46:24;;;;;;;12.23;8.13;;;;;;;;;;5080340;28;20024;-81
2022/09/30 09:49:10;;;;;;;11.55;7.47;;;;;;;;;;5094423;28;20112;-82
2022/09/30 09:51:40;;;;;;;12.90;8.10;;;;;;;;;;5089074;28;20016;-82
2022/09/30 09:54:10;;;;;;;11.35;8.05;;;;;;;;;;5095202;28;20025;-82
2022/09/30 09:56:36;;;;;;;12.30;8.48;;;;;;;;;;5079820;28;20074;-82
2022/09/30 09:59:16;;;;;;;14.40;10.13;;;;;;;;;;5070577;28;20024;-81
2022/09/30 10:01:42;;;;;;;11.50;7.75;;;;;;;;;;5099995;28;20028;-81
2022/09/30 10:04:11;;;;;;;12.27;8.50;;;;;;;;;;5098831;28;20073;-81
2022/09/30 10:06:49;;;;;;;11.70;7.60;;;;;;;;;;5098229;28;20035;-81
2022/09/30 10:09:22;;;;;;;11.40;8.30;;;;;;;;;;5097855;28;20078;-80
2022/09/30 10:11:49;;;;;;;11.52;8.23;;;;;;;;;;5099221;28;20023;-80
2022/09/30 10:14:20;;;;;;;10.50;7.50;;;;;;;;;;5099106;28;20020;-80
2022/09/30 10:16:46;;;;;;;12.30;8.18;;;;;;;;;;5081906;28;20031;-83
2022/09/30 10:19:20;;;;;;;11.07;8.10;;;;;;;;;;5099681;28;20391;-79
2022/09/30 10:21:46;;;;;;;10.35;7.85;;;;;;;;;;5058500;28;20513;-80
2022/09/30 10:24:20;;;;;;;11.98;7.60;;;;;;;;;;5096629;28;20024;-80
2022/09/30 10:26:46;;;;;;;11.50;7.60;;;;;;;;;;5098060;28;20027;-82
2022/09/30 10:29:26;;;;;;;12.48;8.75;;;;;;;;;;5099159;28;20020;-80
2022/09/30 10:31:52;;;;;;;11.02;7.85;;;;;;;;;;5074358;28;20518;-80
2022/09/30 10:34:27;;;;;;;10.82;7.43;;;;;;;;;;5094271;28;20036;-79
2022/09/30 10:36:54;;;;;;;9.63;7.07;;;;;;;;;;5078417;28;20025;-80
2022/09/30 10:39:23;;;;;;;9.13;6.28;;;;;;;;;;5096278;28;20066;-80
2022/09/30 10:41:50;;;;;;;13.45;8.10;;;;;;;;;;5098574;28;20036;-79
2022/09/30 10:44:20;;;;;;;11.63;7.18;;;;;;;;;;5079355;28;20088;-80
2022/09/30 10:46:48;;;;;;;10.65;6.65;;;;;;;;;;5098879;28;20039;-80
2022/09/30 10:49:36;;;;;;;10.85;7.55;;;;;;;;;;5078403;28;20500;-80
2022/09/30 10:52:03;;;;;;;10.18;6.65;;;;;;;;;;5096805;28;20028;-79
2022/09/30 10:54:32;;;;;;;9.60;6.15;;;;;;;;;;5094862;28;20056;-80
2022/09/30 10:57:02;;;;;;;9.63;6.15;;;;;;;;;;5098693;28;20020;-79
2022/09/30 10:59:34;;;;;;;11.30;7.45;;;;;;;;;;5097707;28;20020;-79
2022/09/30 11:02:05;;;;;;;11.20;6.55;;;;;;;;;;5097386;28;20023;-80
2022/09/30 11:04:34;;;;;;;9.48;6.25;;;;;;;;;;5098728;28;20044;-79
2022/09/30 11:07:09;;;;;;;9.60;6.57;;;;;;;;;;5091510;28;20016;-79
2022/09/30 11:09:37;;;;;;;11.60;6.53;;;;;;;;;;5088866;28;20020;-79
2022/09/30 11:12:23;;;;;;;9.15;5.97;;;;;;;;;;5095856;28;20035;-80
2022/09/30 11:14:55;;;;;;;9.23;6.38;;;;;;;;;;5060376;28;20497;-80
2022/09/30 11:17:24;;;;;;;8.50;5.63;;;;;;;;;;5097447;28;20024;-80
2022/09/30 11:20:06;;;;;;;13.05;7.75;;;;;;;;;;5098305;28;20054;-80
2022/09/30 11:22:50;;;;;;;9.57;6.57;;;;;;;;;;5090371;28;20104;-80
2022/09/30 11:25:24;;;;;;;9.60;6.85;;;;;;;;;;5080702;28;20024;-80
2022/09/30 11:27:50;;;;;;;10.95;7.40;;;;;;;;;;5079963;28;20020;-79
2022/09/30 11:30:35;;;;;;;10.00;7.03;;;;;;;;;;5093635;28;20035;-79
2022/09/30 11:33:19;;;;;;;10.02;6.32;;;;;;;;;;5097172;28;20085;-79
2022/09/30 11:35:51;;;;;;;9.85;5.95;;;;;;;;;;5096804;28;20028;-80
2022/09/30 11:38:32;;;;;;;9.17;6.60;;;;;;;;;;5086516;28;20032;-80
2022/09/30 11:41:04;;;;;;;10.00;6.47;;;;;;;;;;5080908;28;20123;-79
2022/09/30 11:43:49;;;;;;;10.05;6.32;;;;;;;;;;5094853;28;20031;-80
2022/09/30 11:46:27;;;;;;;11.48;6.65;;;;;;;;;;5098556;28;20618;-80
2022/09/30 11:49:02;;;;;;;10.50;6.10;;;;;;;;;;5098138;28;20031;-80
2022/09/30 11:51:42;;;;;;;12.13;6.43;;;;;;;;;;5095458;28;20020;-80
2022/09/30 11:54:30;;;;;;;8.35;5.85;;;;;;;;;;5096697;28;20024;-80
2022/09/30 11:56:56;;;;;;;10.45;5.85;;;;;;;;;;5078922;28;20491;-80
2022/09/30 11:59:25;;;;;;;8.57;5.72;;;;;;;;;;5095799;28;20039;-80
2022/09/30 12:01:53;;;;;;;8.77;6.10;;;;;;;;;;5097330;28;20032;-81
2022/09/30 12:04:30;;;;;;;9.15;5.72;;;;;;;;;;5096732;28;20032;-81
2022/09/30 12:06:56;;;;;;;8.00;5.95;;;;;;;;;;5097602;28;20166;-80
2022/09/30 12:09:27;;;;;;;10.50;5.53;;;;;;;;;;5098295;28;20024;-81
2022/09/30 12:12:01;;;;;;;9.52;5.72;;;;;;;;;;5096757;28;20059;-80
2022/09/30 12:14:39;;;;;;;7.50;5.07;;;;;;;;;;5099071;28;20112;-80
2022/09/30 12:17:11;;;;;;;9.73;4.85;;;;;;;;;;5098569;28;20065;-80
2022/09/30 12:19:57;;;;;;;9.73;5.55;;;;;;;;;;5097086;28;20484;-80
2022/09/30 12:22:23;;;;;;;7.18;4.65;;;;;;;;;;5077290;28;20052;-80
2022/09/30 12:24:49;;;;;;;6.00;3.63;;;;;;;;;;5077538;28;20384;-81
2022/09/30 12:27:23;;;;;;;6.88;4.30;;;;;;;;;;5059143;28;20109;-82
2022/09/30 12:30:17;;;;;;;7.88;4.50;;;;;;;;;;5070381;28;20020;-80
2022/09/30 12:33:01;;;;;;;7.13;3.90;;;;;;;;;;5077013;28;20047;-80
2022/09/30 12:35:42;;;;;;;7.03;4.53;;;;;;;;;;5093026;28;20108;-79
2022/09/30 12:38:27;;;;;;;6.97;4.03;;;;;;;;;;5096241;28;20031;-81
2022/09/30 12:41:10;;;;;;;7.40;4.30;;;;;;;;;;5087613;28;20044;-80
2022/09/30 12:43:55;;;;;;;5.93;4.20;;;;;;;;;;5089568;28;20038;-81
2022/09/30 12:46:41;;;;;;;6.93;3.90;;;;;;;;;;5078105;28;20115;-79
2022/09/30 12:49:11;;;;;;;6.38;3.97;;;;;;;;;;5045200;28;20043;-83
2022/09/30 12:51:42;;;;;;;6.20;3.65;;;;;;;;;;5089091;28;20089;-80
2022/09/30 12:54:16;;;;;;;8.10;3.70;;;;;;;;;;5079235;28;20078;-82
2022/09/30 12:56:43;;;;;;;6.40;3.30;;;;;;;;;;5096308;28;20062;-80
2022/09/30 12:59:09;;;;;;;5.30;3.20;;;;;;;;;;5094929;28;20024;-80
2022/09/30 13:01:37;;;;;;;5.70;3.35;;;;;;;;;;5063267;28;20025;-81
2022/09/30 13:04:03;;;;;;;6.18;3.53;;;;;;;;;;5082957;28;20024;-80
2022/09/30 13:06:44;;;;;;;4.78;2.65;;;;;;;;;;5074155;28;20052;-81
2022/09/30 13:09:16;;;;;;;6.13;2.97;;;;;;;;;;5100573;28;20063;-81
2022/09/30 13:11:54;;;;;;;5.10;3.10;;;;;;;;;;5102987;28;20024;-81
2022/09/30 13:14:34;;;;;;;4.38;2.70;;;;;;;;;;5104274;28;20050;-81
2022/09/30 13:17:07;;;;;;;5.50;3.22;;;;;;;;;;5102585;28;20510;-81
2022/09/30 13:19:36;;;;;;;5.43;3.03;;;;;;;;;;5102736;28;20038;-80
2022/09/30 13:22:20;;;;;;;5.60;2.80;;;;;;;;;;5096321;28;20040;-80
2022/09/30 13:25:09;;;;;;;4.90;2.90;;;;;;;;;;5084098;28;20020;-80
2022/09/30 13:27:35;;;;;;;5.97;3.30;;;;;;;;;;5103460;28;20035;-79
2022/09/30 13:30:02;;;;;;;5.35;2.72;;;;;;;;;;5084218;28;20016;-80
2022/09/30 13:32:38;;;;;;;4.88;3.17;;;;;;;;;;5099177;28;20050;-80
2022/09/30 13:35:22;;;;;;;4.95;2.95;;;;;;;;;;5103062;28;20084;-80
2022/09/30 13:38:08;;;;;;;7.25;2.72;;;;;;;;;;5103378;28;20020;-80
2022/09/30 13:40:36;;;;;;;5.30;2.70;;;;;;;;;;5101627;28;20038;-82
2022/09/30 13:43:03;;;;;;;5.00;2.95;;;;;;;;;;5102742;28;20111;-81
2022/09/30 13:45:32;;;;;;;6.55;2.92;;;;;;;;;;5103692;28;20051;-81
2022/09/30 13:48:09;;;;;;;5.25;2.50;;;;;;;;;;5061427;28;20043;-81
2022/09/30 13:50:46;;;;;;;5.65;2.40;;;;;;;;;;5093181;28;20115;-81
2022/09/30 13:53:16;;;;;;;5.45;2.58;;;;;;;;;;5083905;28;20020;-80
2022/09/30 13:55:45;;;;;;;4.47;2.38;;;;;;;;;;5104119;28;20133;-80
2022/09/30 13:58:17;;;;;;;4.57;2.50;;;;;;;;;;5103055;28;20020;-81
2022/09/30 14:00:43;;;;;;;5.80;3.28;;;;;;;;;;5090819;28;20024;-81
2022/09/30 14:03:09;;;;;;;5.18;2.97;;;;;;;;;;5103355;28;20383;-81
2022/09/30 14:05:58;;;;;;;4.80;2.70;;;;;;;;;;5103159;28;20039;-80
2022/09/30 14:08:44;;;;;;;5.43;2.70;;;;;;;;;;5095585;28;20028;-81
2022/09/30 14:11:10;;;;;;;4.55;2.38;;;;;;;;;;5104409;28;20027;-80
2022/09/30 14:13:56;;;;;;;4.65;2.53;;;;;;;;;;5081953;28;20483;-80
2022/09/30 14:16:22;;;;;;;5.10;3.22;;;;;;;;;;5102260;28;20042;-80
2022/09/30 14:18:54;;;;;;;4.78;2.80;;;;;;;;;;5098017;28;20335;-80
2022/09/30 14:21:24;;;;;;;6.05;2.75;;;;;;;;;;5099790;28;20036;-79
2022/09/30 14:24:01;;;;;;;4.38;2.60;;;;;;;;;;5101031;28;20024;-80
2022/09/30 14:26:33;;;;;;;4.47;2.78;;;;;;;;;;5097791;28;20028;-80
2022/09/30 14:29:04;;;;;;;5.47;2.67;;;;;;;;;;5074550;28;20029;-80
2022/09/30 14:31:32;;;;;;;6.00;2.60;;;;;;;;;;5088833;28;20341;-80
2022/09/30 14:33:58;;;;;;;4.95;2.50;;;;;;;;;;5108428;28;20016;-79
2022/09/30 14:36:24;;;;;;;4.85;2.75;;;;;;;;;;5092397;28;20502;-79
2022/09/30 14:38:55;;;;;;;7.57;3.38;;;;;;;;;;5098966;28;20373;-79
2022/09/30 14:41:22;;;;;;;4.15;2.60;;;;;;;;;;5094925;28;20028;-80
2022/09/30 14:43:53;;;;;;;4.20;2.30;;;;;;;;;;5068240;28;20032;-79
2022/09/30 14:46:30;;;;;;;5.57;2.60;;;;;;;;;;5077928;28;20244;-79
2022/09/30 14:48:57;;;;;;;5.22;2.38;;;;;;;;;;5058880;28;20037;-80
2022/09/30 14:51:26;;;;;;;5.60;2.40;;;;;;;;;;5075710;28;20090;-79
2022/09/30 14:53:53;;;;;;;5.75;2.58;;;;;;;;;;5080167;28;20523;-79
2022/09/30 14:56:28;;;;;;;5.20;2.50;;;;;;;;;;5097054;28;20035;-79
2022/09/30 14:58:57;;;;;;;4.30;2.40;;;;;;;;;;5092203;28;20035;-79